createdAt,value
2019-05-31T00:00:17.193Z,76.5
2019-05-31T00:01:17.443Z,76.5
2019-05-31T00:02:17.446Z,76.5
2019-05-31T00:03:17.481Z,76.21
2019-05-31T00:04:17.187Z,76.5
2019-05-31T00:05:17.434Z,76.12
2019-05-31T00:06:17.430Z,76.5
2019-05-31T00:07:17.445Z,76.4
2019-05-31T00:08:17.189Z,75.82
2019-05-31T00:09:17.431Z,77.08
2019-05-31T00:10:17.441Z,76.98
2019-05-31T00:11:17.438Z,76.88
2019-05-31T00:12:17.435Z,77.17
2019-05-31T00:13:17.439Z,76.98
2019-05-31T00:14:22.902Z,77.65
2019-05-31T00:15:17.430Z,77.75
2019-05-31T00:16:17.190Z,77.46
2019-05-31T00:17:17.438Z,78.13
2019-05-31T00:18:17.194Z,78.13
2019-05-31T00:19:17.442Z,78.47
2019-05-31T00:20:17.193Z,78.28
2019-05-31T00:21:17.209Z,78.7
2019-05-31T00:22:18.036Z,78.86
2019-05-31T00:23:17.198Z,78.9
2019-05-31T00:24:17.445Z,78.52
2019-05-31T00:25:17.435Z,78.77
2019-05-31T00:26:17.199Z,78.61
2019-05-31T00:27:17.434Z,78.77
2019-05-31T00:28:17.447Z,78.8
2019-05-31T00:29:17.438Z,78.8
2019-05-31T00:30:17.419Z,79.09
2019-05-31T00:31:17.425Z,79.28
2019-05-31T00:32:17.196Z,79.53
2019-05-31T00:33:17.171Z,79.57
2019-05-31T00:34:17.439Z,79.53
2019-05-31T00:35:17.181Z,79.53
2019-05-31T00:36:17.196Z,79.67
2019-05-31T00:37:17.451Z,79.86
2019-05-31T00:38:17.431Z,79.82
2019-05-31T00:39:17.178Z,79.44
2019-05-31T00:40:20.549Z,80.4
2019-05-31T00:41:17.175Z,80.2
2019-05-31T00:42:17.438Z,80.3
2019-05-31T00:43:17.194Z,80.4
2019-05-31T00:44:30.063Z,80.2
2019-05-31T00:45:17.424Z,80.3
2019-05-31T00:46:17.426Z,80.97
2019-05-31T00:47:17.179Z,80.3
2019-05-31T00:48:17.423Z,80.68
2019-05-31T00:49:17.424Z,80.87
2019-05-31T00:50:17.433Z,81.26
2019-05-31T00:51:17.167Z,81.54
2019-05-31T00:52:17.429Z,81.35
2019-05-31T00:53:17.173Z,81.84
2019-05-31T00:54:17.179Z,82.21
2019-05-31T00:55:17.422Z,82.03
2019-05-31T00:56:17.416Z,82.21
2019-05-31T00:57:17.183Z,82.21
2019-05-31T00:58:17.189Z,82.6
2019-05-31T00:59:17.423Z,83.27
2019-05-31T01:00:17.417Z,83.18
2019-05-31T01:01:17.184Z,83.27
2019-05-31T01:02:17.183Z,82.7
2019-05-31T01:03:17.180Z,82.12
2019-05-31T01:04:17.164Z,82.31
2019-05-31T01:05:17.418Z,82.21
2019-05-31T01:06:17.165Z,82.31
2019-05-31T01:07:17.162Z,82.41
2019-05-31T01:08:17.426Z,82.31
2019-05-31T01:09:17.164Z,82.12
2019-05-31T01:10:17.411Z,82.21
2019-05-31T01:11:17.410Z,82.12
2019-05-31T01:12:17.164Z,82.41
2019-05-31T01:13:17.412Z,82.51
2019-05-31T01:14:17.161Z,82.51
2019-05-31T01:15:17.430Z,82.6
2019-05-31T01:16:17.159Z,82.89
2019-05-31T01:17:17.405Z,83.18
2019-05-31T01:18:17.163Z,82.51
2019-05-31T01:19:17.408Z,82.31
2019-05-31T01:20:17.413Z,81.84
2019-05-31T01:21:17.401Z,82.6
2019-05-31T01:22:17.404Z,82.41
2019-05-31T01:23:17.403Z,82.7
2019-05-31T01:24:17.405Z,82.7
2019-05-31T01:25:17.163Z,82.6
2019-05-31T01:26:17.164Z,82.6
2019-05-31T01:27:17.162Z,82.79
2019-05-31T01:28:17.161Z,82.98
2019-05-31T01:29:17.162Z,82.89
2019-05-31T01:30:17.162Z,83.08
2019-05-31T01:31:17.403Z,82.41
2019-05-31T01:32:17.162Z,83.18
2019-05-31T01:33:17.396Z,83.08
2019-05-31T01:34:17.410Z,83.27
2019-05-31T01:35:17.400Z,83.27
2019-05-31T01:36:17.396Z,83.56
2019-05-31T01:37:17.145Z,83.14
2019-05-31T01:38:17.412Z,83.37
2019-05-31T01:39:17.144Z,83.65
2019-05-31T01:40:17.146Z,82.98
2019-05-31T01:41:17.402Z,82.89
2019-05-31T01:42:17.147Z,83.04
2019-05-31T01:43:18.276Z,82.98
2019-05-31T01:44:17.148Z,83.08
2019-05-31T01:45:21.254Z,83.42
2019-05-31T01:46:17.143Z,82.98
2019-05-31T01:47:18.105Z,83.14
2019-05-31T01:48:17.393Z,83.71
2019-05-31T01:49:17.386Z,84.09
2019-05-31T01:50:17.144Z,83.91
2019-05-31T01:51:17.139Z,84.28
2019-05-31T01:52:17.196Z,84.09
2019-05-31T01:53:17.138Z,84.86
2019-05-31T01:54:17.398Z,84.86
2019-05-31T01:55:17.137Z,85.25
2019-05-31T01:56:17.409Z,85.05
2019-05-31T01:57:17.386Z,85.63
2019-05-31T01:58:17.393Z,85.34
2019-05-31T01:59:17.389Z,85.72
2019-05-31T02:00:17.141Z,85.53
2019-05-31T02:01:17.139Z,85.72
2019-05-31T02:02:17.814Z,85.82
2019-05-31T02:03:18.845Z,86.11
2019-05-31T02:04:18.642Z,86.11
2019-05-31T02:05:17.416Z,86.4
2019-05-31T02:06:21.242Z,86.4
2019-05-31T02:07:19.180Z,86.21
2019-05-31T02:08:17.393Z,86.11
2019-05-31T02:09:17.392Z,86.3
2019-05-31T02:10:17.409Z,86.3
2019-05-31T02:11:17.382Z,86.58
2019-05-31T02:12:17.363Z,86.3
2019-05-31T02:13:17.888Z,86.49
2019-05-31T02:14:17.135Z,86.3
2019-05-31T02:15:33.247Z,86.58
2019-05-31T02:16:17.377Z,86.58
2019-05-31T02:17:17.888Z,86.88
2019-05-31T02:18:17.377Z,86.88
2019-05-31T02:19:18.263Z,87.16
2019-05-31T02:20:17.384Z,86.88
2019-05-31T02:21:17.704Z,86.88
2019-05-31T02:22:17.130Z,87.35
2019-05-31T02:23:18.380Z,87.6
2019-05-31T02:24:17.550Z,87.5
2019-05-31T02:25:18.700Z,86.93
2019-05-31T02:26:17.724Z,87.6
2019-05-31T02:27:17.793Z,87.6
2019-05-31T02:28:17.785Z,88.12
2019-05-31T02:29:18.101Z,87.88
2019-05-31T02:30:21.977Z,88.65
2019-05-31T02:31:19.315Z,88.27
2019-05-31T02:32:19.671Z,89.04
2019-05-31T02:33:19.914Z,89.42
2019-05-31T02:34:18.926Z,89.04
2019-05-31T02:35:20.298Z,88.94
2019-05-31T02:36:19.082Z,89.04
2019-05-31T02:37:19.036Z,88.94
2019-05-31T02:38:20.466Z,89.23
2019-05-31T02:39:20.201Z,89.04
2019-05-31T02:40:20.936Z,89.42
2019-05-31T02:41:20.081Z,89.04
2019-05-31T02:42:17.925Z,89.04
2019-05-31T02:43:20.348Z,89.32
2019-05-31T02:44:19.156Z,89.42
2019-05-31T02:45:20.814Z,89.32
2019-05-31T02:46:17.424Z,88.46
2019-05-31T02:47:18.736Z,89.32
2019-05-31T02:48:19.516Z,89.23
2019-05-31T02:49:18.586Z,89.51
2019-05-31T02:50:19.844Z,88.56
2019-05-31T02:51:19.417Z,89.32
2019-05-31T02:52:19.946Z,89.42
2019-05-31T02:53:19.472Z,89.51
2019-05-31T02:54:19.515Z,88.75
2019-05-31T02:55:19.228Z,88.46
2019-05-31T02:56:19.331Z,88.56
2019-05-31T02:57:19.906Z,89.42
2019-05-31T02:58:20.565Z,88.94
2019-05-31T02:59:19.221Z,89.23
2019-05-31T03:00:22.410Z,89.61
2019-05-31T03:01:21.063Z,89.42
2019-05-31T03:02:19.528Z,89.23
2019-05-31T03:03:20.126Z,90.28
2019-05-31T03:04:19.595Z,90.19
2019-05-31T03:05:21.389Z,90.19
2019-05-31T03:06:20.532Z,90
2019-05-31T03:07:19.180Z,90
2019-05-31T03:08:20.401Z,89.51
2019-05-31T03:09:19.011Z,89.13
2019-05-31T03:10:22.469Z,89.23
2019-05-31T03:11:21.296Z,89.04
2019-05-31T03:12:20.928Z,88.94
2019-05-31T03:13:20.048Z,89.13
2019-05-31T03:14:18.818Z,89.13
2019-05-31T03:15:22.022Z,89.23
2019-05-31T03:16:19.645Z,89.32
2019-05-31T03:17:18.127Z,90.38
2019-05-31T03:18:17.867Z,89.9
2019-05-31T03:19:19.679Z,89.9
2019-05-31T03:20:20.476Z,90.47
2019-05-31T03:21:21.172Z,90.19
2019-05-31T03:22:20.457Z,90.38
2019-05-31T03:23:19.134Z,90.28
2019-05-31T03:24:21.274Z,90.19
2019-05-31T03:25:21.319Z,91.05
2019-05-31T03:26:20.662Z,90.38
2019-05-31T03:27:20.633Z,90.38
2019-05-31T03:28:20.004Z,90.47
2019-05-31T03:29:19.340Z,90.28
2019-05-31T03:30:31.464Z,90.09
2019-05-31T03:31:33.665Z,90.47
2019-05-31T03:32:30.111Z,90.67
2019-05-31T03:33:28.896Z,90.38
2019-05-31T03:34:27.908Z,90.67
2019-05-31T03:35:31.798Z,90.09
2019-05-31T03:36:28.061Z,90.47
2019-05-31T03:37:19.615Z,90.38
2019-05-31T03:38:19.624Z,90.67
2019-05-31T03:39:20.781Z,90.67
2019-05-31T03:40:21.202Z,89.9
2019-05-31T03:41:20.667Z,90.09
2019-05-31T03:42:20.708Z,90
2019-05-31T03:43:21.533Z,90.28
2019-05-31T03:44:20.840Z,90.09
2019-05-31T03:45:20.095Z,89.9
2019-05-31T03:46:41.374Z,89.9
2019-05-31T03:47:20.900Z,90.28
2019-05-31T03:48:20.018Z,90.38
2019-05-31T03:49:18.945Z,89.9
2019-05-31T03:50:19.055Z,90.42
2019-05-31T03:51:22.004Z,90.19
2019-05-31T03:52:18.861Z,90.19
2019-05-31T03:53:19.387Z,90.67
2019-05-31T03:54:19.176Z,90.38
2019-05-31T03:55:21.412Z,90.67
2019-05-31T03:56:18.965Z,90.19
2019-05-31T03:57:19.508Z,90.19
2019-05-31T03:58:20.249Z,89.51
2019-05-31T03:59:19.177Z,89.51
2019-05-31T04:00:19.635Z,89.42
2019-05-31T04:01:17.943Z,89.27
2019-05-31T04:02:19.631Z,89.27
2019-05-31T04:03:19.319Z,88.98
2019-05-31T04:04:18.287Z,89.27
2019-05-31T04:05:20.736Z,89.18
2019-05-31T04:06:17.785Z,88.89
2019-05-31T04:07:18.998Z,88.31
2019-05-31T04:08:18.489Z,88.6
2019-05-31T04:09:19.522Z,88.79
2019-05-31T04:10:20.037Z,88.7
2019-05-31T04:11:19.139Z,89.47
2019-05-31T04:12:19.953Z,89.18
2019-05-31T04:13:20.665Z,88.6
2019-05-31T04:14:20.641Z,88.79
2019-05-31T04:15:19.380Z,88.7
2019-05-31T04:16:20.356Z,88.12
2019-05-31T04:17:19.446Z,88.31
2019-05-31T04:18:25.467Z,88.79
2019-05-31T04:19:17.511Z,88.51
2019-05-31T04:20:20.479Z,88.51
2019-05-31T04:21:18.093Z,88.89
2019-05-31T04:22:17.726Z,88.6
2019-05-31T04:23:19.943Z,88.7
2019-05-31T04:24:19.961Z,88.79
2019-05-31T04:25:19.717Z,89.08
2019-05-31T04:26:19.689Z,88.98
2019-05-31T04:27:19.719Z,89.18
2019-05-31T04:28:20.436Z,89.08
2019-05-31T04:29:19.761Z,89.18
2019-05-31T04:30:20.179Z,89.56
2019-05-31T04:31:19.783Z,89.27
2019-05-31T04:32:19.930Z,89.85
2019-05-31T04:33:18.559Z,90.33
2019-05-31T04:34:20.039Z,90.81
2019-05-31T04:35:20.662Z,90.04
2019-05-31T04:36:19.905Z,90.14
2019-05-31T04:37:20.125Z,90.04
2019-05-31T04:38:20.061Z,89.85
2019-05-31T04:39:20.183Z,89.27
2019-05-31T04:40:22.709Z,89.56
2019-05-31T04:41:20.960Z,89.47
2019-05-31T04:42:20.642Z,89.47
2019-05-31T04:43:20.168Z,90.23
2019-05-31T04:44:20.453Z,89.18
2019-05-31T04:45:20.125Z,89.47
2019-05-31T04:46:19.914Z,89.47
2019-05-31T04:47:20.453Z,89.27
2019-05-31T04:48:20.144Z,89.27
2019-05-31T04:49:18.799Z,89.47
2019-05-31T04:50:20.437Z,89.27
2019-05-31T04:51:20.220Z,89.37
2019-05-31T04:52:20.544Z,89.65
2019-05-31T04:53:20.436Z,89.56
2019-05-31T04:54:20.520Z,89.85
2019-05-31T04:55:19.918Z,89.75
2019-05-31T04:56:20.673Z,89.08
2019-05-31T04:57:19.979Z,89.27
2019-05-31T04:58:20.999Z,89.47
2019-05-31T04:59:20.108Z,89.27
2019-05-31T05:00:21.487Z,89.18
2019-05-31T05:01:20.592Z,89.08
2019-05-31T05:02:18.694Z,89.18
2019-05-31T05:03:23.143Z,88.89
2019-05-31T05:04:18.618Z,88.6
2019-05-31T05:05:20.588Z,88.89
2019-05-31T05:06:18.717Z,88.41
2019-05-31T05:07:18.856Z,88.45
2019-05-31T05:08:20.519Z,88.17
2019-05-31T05:09:20.523Z,88.31
2019-05-31T05:10:18.875Z,88.17
2019-05-31T05:11:18.850Z,88.35
2019-05-31T05:12:20.510Z,88.65
2019-05-31T05:13:18.799Z,88.65
2019-05-31T05:14:18.899Z,88.74
2019-05-31T05:15:20.210Z,88.45
2019-05-31T05:16:18.891Z,88.84
2019-05-31T05:17:40.979Z,89.22
2019-05-31T05:18:19.112Z,89.51
2019-05-31T05:19:18.447Z,89.12
2019-05-31T05:20:18.387Z,89.47
2019-05-31T05:21:18.359Z,90.52
2019-05-31T05:22:16.965Z,90.14
2019-05-31T05:23:17.215Z,90.04
2019-05-31T05:24:19.196Z,90.04
2019-05-31T05:25:17.221Z,90.04
2019-05-31T05:26:17.212Z,90.47
2019-05-31T05:27:17.218Z,89.61
2019-05-31T05:28:17.360Z,89.27
2019-05-31T05:29:17.440Z,89.61
2019-05-31T05:30:17.536Z,89.51
2019-05-31T05:31:17.594Z,89.12
2019-05-31T05:32:17.920Z,89.7
2019-05-31T05:33:17.719Z,89.7
2019-05-31T05:34:19.441Z,89.32
2019-05-31T05:35:18.077Z,89.32
2019-05-31T05:36:18.167Z,89.7
2019-05-31T05:37:18.308Z,89.22
2019-05-31T05:38:18.363Z,89.22
2019-05-31T05:39:18.461Z,88.55
2019-05-31T05:40:16.951Z,88.93
2019-05-31T05:41:17.205Z,89.32
2019-05-31T05:42:17.203Z,89.32
2019-05-31T05:43:16.950Z,89.32
2019-05-31T05:44:16.954Z,88.55
2019-05-31T05:45:17.200Z,88.65
2019-05-31T05:46:17.021Z,88.45
2019-05-31T05:47:17.214Z,87.98
2019-05-31T05:48:16.948Z,87.21
2019-05-31T05:49:16.952Z,87.21
2019-05-31T05:50:17.198Z,88.26
2019-05-31T05:51:17.197Z,87.59
2019-05-31T05:52:16.975Z,87.3
2019-05-31T05:53:17.192Z,87.49
2019-05-31T05:54:16.977Z,87.82
2019-05-31T05:55:17.197Z,86.92
2019-05-31T05:56:17.200Z,86.96
2019-05-31T05:57:17.203Z,87.25
2019-05-31T05:58:17.193Z,87.15
2019-05-31T05:59:17.199Z,87.05
2019-05-31T06:00:17.195Z,87.05
2019-05-31T06:01:16.965Z,86.58
2019-05-31T06:02:16.953Z,86.29
2019-05-31T06:03:16.956Z,86.48
2019-05-31T06:04:17.203Z,86.38
2019-05-31T06:05:17.195Z,86.87
2019-05-31T06:06:16.956Z,87.05
2019-05-31T06:07:17.190Z,86.38
2019-05-31T06:08:17.195Z,86.96
2019-05-31T06:09:17.197Z,86.29
2019-05-31T06:10:17.201Z,85.91
2019-05-31T06:11:17.190Z,86.58
2019-05-31T06:12:17.190Z,86.58
2019-05-31T06:13:17.194Z,86.29
2019-05-31T06:14:20.512Z,86.29
2019-05-31T06:15:17.240Z,86
2019-05-31T06:16:17.194Z,86.38
2019-05-31T06:17:17.284Z,86.77
2019-05-31T06:18:17.195Z,86.58
2019-05-31T06:19:17.191Z,86.29
2019-05-31T06:20:17.189Z,86.29
2019-05-31T06:21:16.966Z,86.48
2019-05-31T06:22:16.940Z,86.29
2019-05-31T06:23:16.955Z,86.62
2019-05-31T06:24:17.191Z,86.33
2019-05-31T06:25:17.202Z,85.62
2019-05-31T06:26:17.200Z,85.95
2019-05-31T06:27:16.940Z,85.33
2019-05-31T06:28:17.197Z,86.38
2019-05-31T06:29:16.940Z,86.14
2019-05-31T06:30:17.192Z,85.28
2019-05-31T06:31:16.957Z,85.47
2019-05-31T06:32:16.942Z,84.89
2019-05-31T06:33:17.191Z,84.89
2019-05-31T06:34:16.936Z,84.41
2019-05-31T06:35:17.196Z,84.41
2019-05-31T06:36:16.961Z,83.93
2019-05-31T06:37:17.192Z,84.55
2019-05-31T06:38:17.224Z,84.07
2019-05-31T06:39:17.185Z,83.49
2019-05-31T06:40:17.197Z,83.3
2019-05-31T06:41:17.195Z,83.4
2019-05-31T06:42:17.184Z,83.11
2019-05-31T06:43:17.190Z,82.82
2019-05-31T06:44:17.194Z,82.43
2019-05-31T06:45:16.942Z,81.42
2019-05-31T06:46:17.214Z,81.32
2019-05-31T06:47:17.027Z,81.81
2019-05-31T06:48:21.997Z,80.84
2019-05-31T06:49:17.199Z,80.65
2019-05-31T06:50:17.204Z,80.84
2019-05-31T06:51:16.951Z,80.55
2019-05-31T06:52:16.950Z,80.07
2019-05-31T06:53:16.949Z,80.55
2019-05-31T06:54:17.204Z,79.6
2019-05-31T06:55:18.024Z,80.65
2019-05-31T06:56:17.207Z,80.69
2019-05-31T06:57:17.212Z,81.32
2019-05-31T06:58:17.296Z,80.3
2019-05-31T06:59:16.947Z,80.65
2019-05-31T07:00:17.205Z,80.11
2019-05-31T07:01:17.203Z,79.82
2019-05-31T07:02:16.958Z,79.25
2019-05-31T07:03:17.203Z,79.35
2019-05-31T07:04:17.215Z,79.05
2019-05-31T07:05:16.961Z,78.61
2019-05-31T07:06:17.210Z,78.13
2019-05-31T07:07:17.215Z,77.84
2019-05-31T07:08:16.962Z,77.65
2019-05-31T07:09:17.593Z,77.46
2019-05-31T07:10:16.986Z,77.46
2019-05-31T07:11:17.226Z,76.59
2019-05-31T07:12:19.976Z,76.73
2019-05-31T07:13:17.222Z,76.5
2019-05-31T07:14:17.231Z,75.92
2019-05-31T07:15:17.236Z,76.53
2019-05-31T07:16:17.227Z,76.15
2019-05-31T07:17:17.222Z,75.86
2019-05-31T07:18:16.981Z,75.48
2019-05-31T07:19:17.245Z,75.19
2019-05-31T07:20:16.988Z,74.8
2019-05-31T07:21:17.232Z,74.61
2019-05-31T07:22:17.235Z,74.84
2019-05-31T07:23:37.793Z,74.22
2019-05-31T07:24:17.248Z,73.97
2019-05-31T07:25:16.994Z,74.36
2019-05-31T07:26:17.286Z,73.58
2019-05-31T07:27:17.265Z,74.26
2019-05-31T07:28:16.993Z,73.88
2019-05-31T07:29:38.030Z,72.81
2019-05-31T07:30:17.264Z,73.2
2019-05-31T07:31:17.279Z,72.33
2019-05-31T07:32:17.257Z,71.76
2019-05-31T07:33:17.008Z,72.37
2019-05-31T07:34:17.264Z,72.08
2019-05-31T07:35:17.011Z,71.22
2019-05-31T07:36:17.267Z,72.18
2019-05-31T07:37:35.682Z,70.57
2019-05-31T07:38:17.272Z,70.86
2019-05-31T07:39:17.307Z,71.64
2019-05-31T07:40:17.280Z,71.25
2019-05-31T07:41:17.271Z,72.56
2019-05-31T07:42:17.372Z,72.08
2019-05-31T07:43:17.029Z,71.6
2019-05-31T07:44:17.285Z,71.7
2019-05-31T07:45:17.061Z,70.73
2019-05-31T07:46:17.288Z,70.06
2019-05-31T07:47:17.044Z,69.38
2019-05-31T07:48:17.403Z,68.84
2019-05-31T07:49:17.063Z,68.84
2019-05-31T07:50:17.047Z,68.07
2019-05-31T07:51:17.314Z,68.29
2019-05-31T07:52:27.025Z,67.43
2019-05-31T07:53:17.056Z,66.66
2019-05-31T07:54:17.083Z,66.36
2019-05-31T07:55:17.073Z,66.78
2019-05-31T07:56:17.325Z,66.01
2019-05-31T07:57:17.069Z,66.11
2019-05-31T07:58:18.831Z,65.91
2019-05-31T07:59:17.329Z,66.59
2019-05-31T08:00:17.081Z,68.19
2019-05-31T08:01:17.327Z,68.01
2019-05-31T08:02:17.346Z,67.97
2019-05-31T08:03:17.343Z,68.65
2019-05-31T08:04:17.359Z,69.71
2019-05-31T08:05:17.347Z,70.67
2019-05-31T08:06:17.381Z,70
2019-05-31T08:07:17.349Z,70.48
2019-05-31T08:08:17.460Z,70.09
2019-05-31T08:09:17.358Z,69.23
2019-05-31T08:10:17.108Z,69.61
2019-05-31T08:11:17.366Z,68.84
2019-05-31T08:12:17.116Z,68.84
2019-05-31T08:13:17.358Z,68.26
2019-05-31T08:14:17.380Z,68.45
2019-05-31T08:15:17.118Z,68.45
2019-05-31T08:16:17.377Z,69.42
2019-05-31T08:17:17.131Z,69.61
2019-05-31T08:18:17.385Z,69.42
2019-05-31T08:19:18.912Z,69.29
2019-05-31T08:20:17.392Z,69.57
2019-05-31T08:21:17.387Z,70.48
2019-05-31T08:22:17.463Z,68.99
2019-05-31T08:23:17.393Z,69.23
2019-05-31T08:24:23.701Z,69.51
2019-05-31T08:25:17.147Z,69.13
2019-05-31T08:26:29.308Z,68.39
2019-05-31T08:27:17.400Z,67.91
2019-05-31T08:28:17.228Z,68.59
2019-05-31T08:29:17.429Z,68.19
2019-05-31T08:30:17.418Z,67.23
2019-05-31T08:31:17.437Z,67.04
2019-05-31T08:32:17.428Z,66.2
2019-05-31T08:33:17.421Z,65.63
2019-05-31T08:34:17.431Z,67.75
2019-05-31T08:35:17.902Z,67.59
2019-05-31T08:36:17.433Z,65.27
2019-05-31T08:37:17.438Z,65.47
2019-05-31T08:38:17.471Z,65.82
2019-05-31T08:39:17.459Z,66.11
2019-05-31T08:40:17.448Z,66.11
2019-05-31T08:41:17.456Z,67.17
2019-05-31T08:42:17.683Z,67.91
2019-05-31T08:43:17.208Z,69.45
2019-05-31T08:44:17.209Z,68.39
2019-05-31T08:45:19.665Z,68.59
2019-05-31T08:46:17.220Z,69.16
2019-05-31T08:47:17.465Z,68.01
2019-05-31T08:48:17.468Z,67.33
2019-05-31T08:49:45.675Z,66.59
2019-05-31T08:50:17.541Z,67.23
2019-05-31T08:51:17.231Z,66.75
2019-05-31T08:52:32.946Z,66.49
2019-05-31T08:53:17.493Z,65.82
2019-05-31T08:54:17.499Z,65.91
2019-05-31T08:55:17.494Z,66.2
2019-05-31T08:56:17.508Z,66.69
2019-05-31T08:57:17.502Z,66.59
2019-05-31T08:58:17.523Z,67.07
2019-05-31T08:59:17.524Z,66.91
2019-05-31T09:00:17.275Z,64.98
2019-05-31T09:01:17.522Z,65.27
2019-05-31T09:02:17.538Z,67.4
2019-05-31T09:03:17.530Z,65.56
2019-05-31T09:04:17.537Z,63.95
2019-05-31T09:05:17.285Z,64.82
2019-05-31T09:06:17.554Z,64.43
2019-05-31T09:07:17.542Z,63.95
2019-05-31T09:08:17.543Z,63.95
2019-05-31T09:09:17.296Z,63.76
2019-05-31T09:10:17.567Z,63.66
2019-05-31T09:11:17.562Z,64.31
2019-05-31T09:12:17.352Z,64.01
2019-05-31T09:13:17.568Z,63.66
2019-05-31T09:14:17.324Z,64.05
2019-05-31T09:15:17.321Z,64.11
2019-05-31T09:16:17.589Z,64.24
2019-05-31T09:17:17.600Z,64.92
2019-05-31T09:18:17.591Z,65.2
2019-05-31T09:19:17.352Z,64.82
2019-05-31T09:20:17.587Z,64.11
2019-05-31T09:21:17.363Z,64.01
2019-05-31T09:22:17.596Z,64.31
2019-05-31T09:23:17.640Z,64.21
2019-05-31T09:24:17.607Z,64.11
2019-05-31T09:25:17.376Z,64.01
2019-05-31T09:26:17.624Z,63.63
2019-05-31T09:27:17.631Z,64.11
2019-05-31T09:28:17.624Z,63.82
2019-05-31T09:29:17.374Z,63.92
2019-05-31T09:30:24.637Z,63.53
2019-05-31T09:31:17.388Z,63.63
2019-05-31T09:32:17.637Z,63.92
2019-05-31T09:33:17.671Z,64.05
2019-05-31T09:34:17.415Z,62.6
2019-05-31T09:35:17.670Z,61.57
2019-05-31T09:36:30.498Z,62.73
2019-05-31T09:37:17.662Z,61.98
2019-05-31T09:38:17.663Z,60.57
2019-05-31T09:39:17.672Z,58.65
2019-05-31T09:40:17.678Z,58.37
2019-05-31T09:41:17.733Z,58.24
2019-05-31T09:42:17.677Z,58.34
2019-05-31T09:43:22.554Z,58.92
2019-05-31T09:44:17.702Z,58.63
2019-05-31T09:45:17.451Z,59.11
2019-05-31T09:46:17.454Z,59.56
2019-05-31T09:47:17.734Z,60.24
2019-05-31T09:48:17.723Z,61.24
2019-05-31T09:49:17.712Z,60.66
2019-05-31T09:50:17.818Z,61.43
2019-05-31T09:51:17.721Z,59.59
2019-05-31T09:52:17.492Z,61.05
2019-05-31T09:53:17.639Z,60.27
2019-05-31T09:54:26.960Z,59.01
2019-05-31T09:55:17.768Z,57.4
2019-05-31T09:56:17.491Z,56.82
2019-05-31T09:57:17.748Z,57.3
2019-05-31T09:58:17.501Z,56.24
2019-05-31T09:59:17.759Z,56.75
2019-05-31T10:00:17.814Z,56.26
2019-05-31T10:01:17.782Z,57.33
2019-05-31T10:02:17.539Z,58.49
2019-05-31T10:03:17.782Z,54.91
2019-05-31T10:04:17.548Z,55
2019-05-31T10:05:17.803Z,55.94
2019-05-31T10:06:17.793Z,56.62
2019-05-31T10:07:17.576Z,56.5
2019-05-31T10:08:17.804Z,56.98
2019-05-31T10:09:21.278Z,57.37
2019-05-31T10:10:17.823Z,56.88
2019-05-31T10:11:17.884Z,57.46
2019-05-31T10:12:17.872Z,57.08
2019-05-31T10:13:17.582Z,56.6
2019-05-31T10:14:17.845Z,56.5
2019-05-31T10:15:17.599Z,55.73
2019-05-31T10:16:17.591Z,55.46
2019-05-31T10:17:17.851Z,55.46
2019-05-31T10:18:17.657Z,54.98
2019-05-31T10:19:17.666Z,54.88
2019-05-31T10:20:34.338Z,55.36
2019-05-31T10:21:17.673Z,54.79
2019-05-31T10:22:17.906Z,54.98
2019-05-31T10:23:31.705Z,54.88
2019-05-31T10:24:17.884Z,55.27
2019-05-31T10:25:17.637Z,55.17
2019-05-31T10:26:17.973Z,55.56
2019-05-31T10:27:17.916Z,55.85
2019-05-31T10:28:17.647Z,55.07
2019-05-31T10:29:17.655Z,55.07
2019-05-31T10:30:17.908Z,55.46
2019-05-31T10:31:19.020Z,55.85
2019-05-31T10:32:24.139Z,56.5
2019-05-31T10:33:17.939Z,56.5
2019-05-31T10:34:17.941Z,57.28
2019-05-31T10:35:18.007Z,58.14
2019-05-31T10:36:20.791Z,58.4
2019-05-31T10:37:17.699Z,58.95
2019-05-31T10:38:17.711Z,59.53
2019-05-31T10:39:17.704Z,59.73
2019-05-31T10:40:17.999Z,59.51
2019-05-31T10:41:17.719Z,60.28
2019-05-31T10:42:22.384Z,60.67
2019-05-31T10:43:17.967Z,60.86
2019-05-31T10:44:17.991Z,59.99
2019-05-31T10:45:17.989Z,60.47
2019-05-31T10:46:17.979Z,59.41
2019-05-31T10:47:17.994Z,59.05
2019-05-31T10:48:17.988Z,57.54
2019-05-31T10:49:17.750Z,57.44
2019-05-31T10:50:17.757Z,56.47
2019-05-31T10:51:18.815Z,56.7
2019-05-31T10:52:18.005Z,55.34
2019-05-31T10:53:18.010Z,55.24
2019-05-31T10:54:18.020Z,55.24
2019-05-31T10:55:17.765Z,56.09
2019-05-31T10:56:18.159Z,56.09
2019-05-31T10:57:18.021Z,56.67
2019-05-31T10:58:18.030Z,57.05
2019-05-31T10:59:18.034Z,57.31
2019-05-31T11:00:17.799Z,57.6
2019-05-31T11:01:18.052Z,57.51
2019-05-31T11:02:18.116Z,57.6
2019-05-31T11:03:17.813Z,57.67
2019-05-31T11:04:18.049Z,57.21
2019-05-31T11:05:21.635Z,57.79
2019-05-31T11:06:18.053Z,56.76
2019-05-31T11:07:18.054Z,56.37
2019-05-31T11:08:17.812Z,56.76
2019-05-31T11:09:17.818Z,56.98
2019-05-31T11:10:18.081Z,55.43
2019-05-31T11:11:17.868Z,54.66
2019-05-31T11:12:18.069Z,54.85
2019-05-31T11:13:18.091Z,55.63
2019-05-31T11:14:18.094Z,56.67
2019-05-31T11:15:18.089Z,56.45
2019-05-31T11:16:18.086Z,57.31
2019-05-31T11:17:18.090Z,57.41
2019-05-31T11:18:17.855Z,56.83
2019-05-31T11:19:18.150Z,56.37
2019-05-31T11:20:17.877Z,57.51
2019-05-31T11:21:18.145Z,56.47
2019-05-31T11:22:18.121Z,56.67
2019-05-31T11:23:18.139Z,54.66
2019-05-31T11:24:18.296Z,54.95
2019-05-31T11:25:18.167Z,55.82
2019-05-31T11:26:18.927Z,57.08
2019-05-31T11:27:18.604Z,56.7
2019-05-31T11:28:18.773Z,56.4
2019-05-31T11:29:18.152Z,56.88
2019-05-31T11:30:18.164Z,57.28
2019-05-31T11:31:18.156Z,57.46
2019-05-31T11:32:18.165Z,56.67
2019-05-31T11:33:36.032Z,55.53
2019-05-31T11:34:18.256Z,55.92
2019-05-31T11:35:18.155Z,55.82
2019-05-31T11:36:17.925Z,55.05
2019-05-31T11:37:18.166Z,54.27
2019-05-31T11:38:17.929Z,55.53
2019-05-31T11:39:17.938Z,54.75
2019-05-31T11:40:17.943Z,55.82
2019-05-31T11:41:18.187Z,55.24
2019-05-31T11:42:18.201Z,54.47
2019-05-31T11:43:18.333Z,53.59
2019-05-31T11:44:18.187Z,54.83
2019-05-31T11:45:18.572Z,55.29
2019-05-31T11:46:18.253Z,55.96
2019-05-31T11:47:18.198Z,56.45
2019-05-31T11:48:18.218Z,57.03
2019-05-31T11:49:17.955Z,56.35
2019-05-31T11:50:18.212Z,56.15
2019-05-31T11:51:31.356Z,55.57
2019-05-31T11:52:18.208Z,55.51
2019-05-31T11:53:18.233Z,54.66
2019-05-31T11:54:17.968Z,53.41
2019-05-31T11:55:25.998Z,53.69
2019-05-31T11:56:17.977Z,53.53
2019-05-31T11:57:18.229Z,51.88
2019-05-31T11:58:18.235Z,50.74
2019-05-31T11:59:17.991Z,50.92
2019-05-31T12:00:19.444Z,51.5
2019-05-31T12:01:17.997Z,51.59
2019-05-31T12:02:18.038Z,51.59
2019-05-31T12:03:18.254Z,51.68
2019-05-31T12:04:18.248Z,51.23
2019-05-31T12:05:18.017Z,51.23
2019-05-31T12:06:18.552Z,49.87
2019-05-31T12:07:18.020Z,50.96
2019-05-31T12:08:18.021Z,49.99
2019-05-31T12:09:18.303Z,49.9
2019-05-31T12:10:18.295Z,49.54
2019-05-31T12:11:18.041Z,48.47
2019-05-31T12:12:18.284Z,48.08
2019-05-31T12:13:18.302Z,47.4
2019-05-31T12:14:18.044Z,48.85
2019-05-31T12:15:18.306Z,48.25
2019-05-31T12:16:18.306Z,47.19
2019-05-31T12:17:18.065Z,48.44
2019-05-31T12:18:18.306Z,49.19
2019-05-31T12:19:18.070Z,48.61
2019-05-31T12:20:19.716Z,48.32
2019-05-31T12:21:18.097Z,47.55
2019-05-31T12:22:18.090Z,47.64
2019-05-31T12:23:18.331Z,48.06
2019-05-31T12:24:18.097Z,46.6
2019-05-31T12:25:18.177Z,47.28
2019-05-31T12:26:18.109Z,46.8
2019-05-31T12:27:18.366Z,47.3
2019-05-31T12:28:18.107Z,46.99
2019-05-31T12:29:18.123Z,48.06
2019-05-31T12:30:25.119Z,48.35
2019-05-31T12:31:18.174Z,47.77
2019-05-31T12:32:18.371Z,48.93
2019-05-31T12:33:18.394Z,47.57
2019-05-31T12:34:18.151Z,47.55
2019-05-31T12:35:18.152Z,47.74
2019-05-31T12:36:18.135Z,47.36
2019-05-31T12:37:18.396Z,49.29
2019-05-31T12:38:18.390Z,51.45
2019-05-31T12:39:18.431Z,50.09
2019-05-31T12:40:18.442Z,49.87
2019-05-31T12:41:18.189Z,49.97
2019-05-31T12:42:18.167Z,48.74
2019-05-31T12:43:18.447Z,46.51
2019-05-31T12:44:18.171Z,45.25
2019-05-31T12:45:18.526Z,45.64
2019-05-31T12:46:18.182Z,44.67
2019-05-31T12:47:18.446Z,44.93
2019-05-31T12:48:18.186Z,44.45
2019-05-31T12:49:18.450Z,44.16
2019-05-31T12:50:26.167Z,45.51
2019-05-31T12:51:28.849Z,44.54
2019-05-31T12:52:18.460Z,43
2019-05-31T12:53:18.207Z,42.22
2019-05-31T12:54:18.208Z,41.83
2019-05-31T12:55:18.501Z,42.22
2019-05-31T12:56:18.469Z,40.99